Airfield :
LOGIN :

Register | Disclaimer

   EN    FR    IT 

 










Legend :    VFR   Marginal VFR   IFR   Intensive IFR   Very Intensive IFR
Visi :
Ceiling :
>= 8 km
>= 3000ft
5 to 8 km
1000 to 3000 ft
1500m to 5 km
500 to 1000 ft
800 to 1500m
200 to 500 ft
< 800m
< 200 ft
Symbols :   Thunderstorms  Fog  Heavy snow  Heavy precipitations  Wind > 20 kt
SIGMETs :     Misc.  Thunderstorms  Icing  Turbulence  Mountain Waves  Volcanic Ashes






- Airport Elevation : 319 ft


EIME - Casement Air Base

CURRENT METAR :
  • 011300Z 20011KT 9999 FEW028 SCT040 BKN250 11/07 Q1026

EXPIRED METARs :
  • 011230Z 21012KT 9999 FEW026 SCT040 BKN250 11/07 Q1026
  • 011200Z 20013KT 9999 FEW030 SCT042 BKN250 10/07 Q1026
  • 011130Z 20012KT 9999 FEW030 SCT042 BKN250 10/06 Q1026
  • 011100Z 20010KT 9999 FEW030 BKN250 10/06 Q1026
  • 011030Z 19011KT 9999 FEW048 SCT250 10/07 Q1027

TAF TAF EIME
Valid from the 01 at 12:00 until the 01 at 21:00 UTC


011100Z 0112/0121 20010KT 9999 SCT030



MET'MAP, your aeronautical weather chart ! - Copyright ORBIFLY December 2007 - Disclaimer

ORBIFLY MET'MAP TEAM :

Programming & Development : Alexandra Zaïnal
Original concept : Baudouin d'Aumeries
Technical & hardware support : Manuel Goepfert
Assistance : Marc-Olivier Méhu




SOURCES & CREDITS :

   NOAA